Time;durP1;ratioP1;P1;durP2;ratioP2;P2;SDS_P1;SDS_P2;PMS_P1;PMS_P2;Temp;Humidity;BMP_temperature;BMP_pressure;BME280_temperature;BME280_humidity;BME280_pressure;Samples;Min_cycle;Max_cycle;Signal;HPM_P1;HPM_P2
2022/07/03 00:00:29;;;;;;;4.33;3.92;;;;;;;17.50;81.45;100828.81;2818879;83;21043;-88
2022/07/03 00:04:32;;;;;;;6.40;4.58;;;;;;;17.45;81.98;100834.65;2816256;83;21091;-87
2022/07/03 00:08:33;;;;;;;5.62;4.95;;;;;;;17.41;81.81;100834.14;2815311;83;21023;-88
2022/07/03 00:12:35;;;;;;;6.90;4.85;;;;;;;17.41;81.92;100826.08;2818333;83;21042;-87
2022/07/03 00:16:36;;;;;;;7.37;5.70;;;;;;;17.47;81.85;100840.71;2815354;83;21008;-87
2022/07/03 00:20:43;;;;;;;7.42;5.70;;;;;;;17.48;81.77;100831.64;2793912;84;21074;-87
2022/07/03 00:24:56;;;;;;;5.62;5.00;;;;;;;17.53;81.72;100823.97;2770014;84;21113;-87
2022/07/03 00:29:00;;;;;;;6.17;5.67;;;;;;;17.51;81.52;100820.59;2736640;85;21042;-87
2022/07/03 00:33:04;;;;;;;11.85;4.87;;;;;;;17.43;82.01;100823.21;2769276;84;21046;-88
2022/07/03 00:37:08;;;;;;;5.53;5.03;;;;;;;17.43;81.69;100817.83;2764196;84;21602;-88
2022/07/03 00:41:27;;;;;;;8.75;5.47;;;;;;;17.36;82.13;100822.99;2722881;85;21037;-88
2022/07/03 00:45:33;;;;;;;7.17;5.60;;;;;;;17.35;82.46;100821.30;2733701;85;21056;-87
2022/07/03 00:49:36;;;;;;;9.58;7.45;;;;;;;17.24;82.36;100819.72;2722483;85;21027;-88
2022/07/03 00:53:38;;;;;;;10.40;7.03;;;;;;;17.12;82.84;100808.38;2736293;86;21658;-88
2022/07/03 00:57:44;;;;;;;7.95;7.15;;;;;;;17.03;83.36;100807.13;2734395;85;21096;-88
2022/07/03 01:01:49;;;;;;;10.20;6.45;;;;;;;16.92;83.67;100802.32;2714737;85;21720;-87
2022/07/03 01:05:54;;;;;;;7.62;6.58;;;;;;;16.80;84.34;100794.14;2744925;84;21657;-88
2022/07/03 01:10:33;;;;;;;6.62;5.97;;;;;;;16.75;85.10;100788.39;2722378;85;21010;-87
2022/07/03 01:14:46;;;;;;;6.87;6.17;;;;;;;16.70;85.71;100792.39;2734442;84;21064;-87
2022/07/03 01:18:54;;;;;;;11.60;7.97;;;;;;;16.69;85.57;100797.39;2766463;84;21023;-87
2022/07/03 01:23:00;;;;;;;6.70;6.00;;;;;;;16.64;86.03;100798.88;2722479;85;21125;-88
2022/07/03 01:27:16;;;;;;;8.23;6.65;;;;;;;16.56;86.35;100795.09;2733907;85;21021;-88
2022/07/03 01:31:22;;;;;;;11.05;6.65;;;;;;;16.48;87.18;100797.70;2708616;85;21018;-88
2022/07/03 01:35:35;;;;;;;8.30;6.53;;;;;;;16.45;86.88;100796.67;2759309;85;21348;-86
2022/07/03 01:39:39;;;;;;;8.28;7.45;;;;;;;16.48;86.93;100794.16;2721009;87;21087;-88
2022/07/03 01:43:51;;;;;;;8.83;6.62;;;;;;;16.56;86.63;100778.16;2812999;83;21071;-88
2022/07/03 01:47:54;;;;;;;8.73;7.50;;;;;;;16.58;86.58;100786.03;2810901;83;21020;-87
2022/07/03 01:51:58;;;;;;;10.18;8.73;;;;;;;16.52;86.96;100786.17;2814865;83;21086;-87
2022/07/03 01:56:00;;;;;;;14.55;7.08;;;;;;;16.49;87.37;100774.38;2806654;83;21014;-87
2022/07/03 02:00:02;;;;;;;8.03;7.03;;;;;;;16.48;87.36;100773.55;2766924;84;21039;-87
2022/07/03 02:04:23;;;;;;;8.93;7.60;;;;;;;16.40;87.91;100774.30;2814235;83;21559;-87
2022/07/03 02:08:49;;;;;;;7.92;6.15;;;;;;;16.39;87.44;100771.27;2806976;83;21535;-87
2022/07/03 02:12:55;;;;;;;8.43;7.20;;;;;;;16.31;86.78;100781.94;2810469;84;21030;-87
2022/07/03 02:17:18;;;;;;;8.10;7.20;;;;;;;16.36;86.51;100787.69;2810200;83;21038;-87
2022/07/03 02:21:20;;;;;;;11.35;7.97;;;;;;;16.39;85.65;100784.70;2789205;84;21094;-87
2022/07/03 02:25:32;;;;;;;8.55;5.78;;;;;;;16.40;84.80;100786.87;2813278;83;21043;-87
2022/07/03 02:30:05;;;;;;;6.00;5.42;;;;;;;16.35;84.45;100789.17;2813156;83;21043;-87
2022/07/03 02:34:07;;;;;;;13.65;5.65;;;;;;;16.25;84.10;100778.49;2814061;83;20991;-88
2022/07/03 02:38:20;;;;;;;7.35;5.90;;;;;;;16.15;84.59;100783.09;2812129;83;21550;-87
2022/07/03 02:42:50;;;;;;;9.95;5.37;;;;;;;16.08;84.69;100778.82;2814000;83;21019;-87
2022/07/03 02:47:23;;;;;;;7.90;5.85;;;;;;;15.93;86.90;100771.78;2811275;83;21126;-87
2022/07/03 02:51:29;;;;;;;8.80;7.05;;;;;;;15.65;87.86;100762.33;2810971;84;21035;-88
2022/07/03 02:55:44;;;;;;;6.55;5.17;;;;;;;15.58;88.16;100766.59;2809944;84;21039;-88
2022/07/03 03:00:02;;;;;;;12.18;6.67;;;;;;;15.65;87.14;100763.19;2810859;83;21055;-87
2022/07/03 03:04:27;;;;;;;7.90;7.20;;;;;;;15.69;85.32;100759.69;2782104;84;21059;-87
2022/07/03 03:08:34;;;;;;;7.28;6.35;;;;;;;15.66;85.26;100759.98;2745283;83;21513;-87
2022/07/03 03:12:41;;;;;;;7.22;6.53;;;;;;;15.65;85.50;100756.96;2742110;85;21089;-88
2022/07/03 03:16:50;;;;;;;8.55;5.97;;;;;;;15.67;86.40;100755.83;2741313;85;21033;-88
2022/07/03 03:20:59;;;;;;;6.87;6.10;;;;;;;15.80;86.50;100753.28;2735011;85;21152;-87
2022/07/03 03:25:03;;;;;;;11.38;6.60;;;;;;;15.93;86.02;100761.05;2740373;85;21101;-87
2022/07/03 03:29:05;;;;;;;11.28;7.22;;;;;;;16.01;85.24;100758.93;2752612;85;21572;-87
2022/07/03 03:33:10;;;;;;;6.80;6.05;;;;;;;16.03;85.53;100761.82;2755988;85;21100;-88
2022/07/03 03:37:12;;;;;;;7.83;5.97;;;;;;;16.06;86.11;100757.48;2754562;85;21049;-87
2022/07/03 03:41:13;;;;;;;8.75;6.65;;;;;;;16.08;84.38;100750.13;2769988;83;21262;-87
2022/07/03 03:45:14;;;;;;;8.30;6.95;;;;;;;15.97;85.40;100742.30;2820127;83;21038;-87
2022/07/03 03:49:15;;;;;;;8.98;7.47;;;;;;;16.08;86.90;100756.84;2820100;83;21071;-88
2022/07/03 03:53:19;;;;;;;6.72;6.10;;;;;;;16.22;87.32;100754.65;2786665;83;21039;-87
2022/07/03 03:57:23;;;;;;;9.18;7.60;;;;;;;16.40;87.25;100751.96;2819839;83;21586;-87
2022/07/03 04:01:24;;;;;;;8.28;6.20;;;;;;;16.56;86.79;100749.44;2819092;84;21090;-87
2022/07/03 04:05:25;;;;;;;10.55;6.60;;;;;;;16.64;86.68;100753.22;2811294;83;20996;-88
2022/07/03 04:09:27;;;;;;;11.18;6.72;;;;;;;16.84;87.89;100753.39;2819298;83;21027;-87
2022/07/03 04:13:28;;;;;;;12.13;7.25;;;;;;;16.92;87.71;100753.95;2816776;83;21043;-88
2022/07/03 04:17:30;;;;;;;10.68;7.58;;;;;;;16.87;87.96;100768.34;2817359;83;21537;-87
2022/07/03 04:21:31;;;;;;;9.20;7.55;;;;;;;17.05;88.21;100771.53;2812667;83;21031;-88
2022/07/03 04:25:33;;;;;;;12.98;7.55;;;;;;;17.16;88.04;100767.25;2822469;82;21070;-87
2022/07/03 04:29:34;;;;;;;18.45;8.08;;;;;;;17.68;89.46;100762.83;2816861;82;21039;-87
2022/07/03 04:33:35;;;;;;;10.48;6.58;;;;;;;18.87;90.77;100760.61;2774566;84;21015;-87
2022/07/03 04:37:37;;;;;;;8.63;6.80;;;;;;;20.25;84.78;100769.53;2723502;85;21045;-88
2022/07/03 04:41:38;;;;;;;12.63;5.60;;;;;;;21.17;77.57;100762.41;2742430;84;21051;-88
2022/07/03 04:45:39;;;;;;;10.50;6.78;;;;;;;22.10;76.20;100755.25;2724515;85;21037;-88
2022/07/03 04:49:42;;;;;;;12.23;6.75;;;;;;;22.95;70.35;100749.20;2718986;85;21683;-87
2022/07/03 04:53:43;;;;;;;6.92;5.80;;;;;;;23.18;68.41;100749.46;2729326;85;21024;-87
2022/07/03 04:57:45;;;;;;;5.35;4.75;;;;;;;23.68;67.49;100742.61;2724485;86;21341;-87
2022/07/03 05:01:49;;;;;;;7.80;4.97;;;;;;;24.55;67.72;100748.52;2742650;84;21024;-87
2022/07/03 05:05:49;;;;;;;11.00;4.95;;;;;;;25.46;64.35;100747.53;2744501;84;21009;-88
2022/07/03 05:09:51;;;;;;;11.18;6.05;;;;;;;25.84;60.49;100741.87;2704504;85;21034;-88
2022/07/03 05:13:52;;;;;;;5.10;4.22;;;;;;;25.70;61.08;100736.47;2763787;84;21187;-87
2022/07/03 05:17:53;;;;;;;6.90;6.00;;;;;;;25.72;61.55;100737.08;2766489;84;21033;-87
2022/07/03 05:21:54;;;;;;;4.90;4.50;;;;;;;25.92;60.57;100727.47;2724444;86;21093;-88
2022/07/03 05:25:55;;;;;;;6.35;5.25;;;;;;;25.90;60.18;100726.00;2742096;84;21041;-87
2022/07/03 05:29:57;;;;;;;13.18;7.70;;;;;;;25.56;60.94;100733.50;2737443;85;21087;-87
2022/07/03 05:33:58;;;;;;;20.37;18.20;;;;;;;25.61;61.03;100729.06;2759840;86;21095;-88
2022/07/03 05:37:59;;;;;;;7.92;6.20;;;;;;;25.44;61.50;100727.31;2757701;84;22151;-87
2022/07/03 05:42:03;;;;;;;6.00;5.17;;;;;;;25.56;61.96;100728.05;2731627;84;21103;-87
2022/07/03 05:46:04;;;;;;;6.92;5.40;;;;;;;25.74;60.19;100725.44;2744943;84;21064;-87
2022/07/03 05:50:07;;;;;;;46.73;38.20;;;;;;;25.85;61.01;100723.95;2731582;84;21077;-87
2022/07/03 05:54:08;;;;;;;8.75;6.95;;;;;;;26.08;60.82;100727.48;2754073;86;21045;-87
2022/07/03 05:58:10;;;;;;;8.48;6.17;;;;;;;26.33;59.80;100726.72;2743548;86;21059;-87
2022/07/03 06:02:11;;;;;;;9.08;5.10;;;;;;;26.34;60.08;100732.52;2735721;84;21025;-87
2022/07/03 06:06:12;;;;;;;7.05;4.20;;;;;;;26.36;59.68;100730.91;2732865;86;21031;-87
2022/07/03 06:10:13;;;;;;;6.20;5.60;;;;;;;26.30;60.20;100727.70;2760063;85;21051;-87
2022/07/03 06:14:15;;;;;;;6.15;4.90;;;;;;;26.20;61.25;100737.19;2755887;85;21068;-87
2022/07/03 06:18:16;;;;;;;7.33;5.03;;;;;;;26.31;61.12;100727.47;2752886;86;21008;-86
2022/07/03 06:22:18;;;;;;;7.20;4.08;;;;;;;26.55;59.84;100726.89;2726119;84;21056;-88
2022/07/03 06:26:19;;;;;;;5.62;4.95;;;;;;;26.20;60.80;100728.19;2739482;84;21057;-87
2022/07/03 06:30:20;;;;;;;5.42;4.10;;;;;;;25.98;61.87;100724.92;2723990;87;21030;-87
2022/07/03 06:34:21;;;;;;;7.87;3.90;;;;;;;26.10;60.30;100721.28;2762814;84;21041;-87
2022/07/03 06:38:22;;;;;;;5.12;3.65;;;;;;;25.88;61.86;100719.42;2742854;85;21053;-87
2022/07/03 06:42:23;;;;;;;6.03;4.08;;;;;;;25.77;62.07;100717.38;2718427;85;21054;-87
2022/07/03 06:46:25;;;;;;;5.72;4.03;;;;;;;25.56;62.82;100713.08;2748653;84;21048;-87
2022/07/03 06:50:26;;;;;;;4.20;3.72;;;;;;;25.14;63.35;100712.82;2725162;85;21121;-87
2022/07/03 06:54:28;;;;;;;4.75;3.65;;;;;;;24.88;64.49;100721.34;2736081;84;29441;-87
2022/07/03 06:58:29;;;;;;;3.98;3.58;;;;;;;24.82;64.52;100723.55;2724275;87;21042;-87
2022/07/03 07:02:30;;;;;;;5.12;2.98;;;;;;;24.46;65.32;100717.42;2741473;84;21082;-88
2022/07/03 07:06:32;;;;;;;4.87;3.47;;;;;;;24.63;65.40;100715.16;2724509;85;21105;-88
2022/07/03 07:10:33;;;;;;;6.70;2.85;;;;;;;24.91;63.69;100707.31;2767805;86;21047;-87
2022/07/03 07:14:35;;;;;;;4.05;3.65;;;;;;;25.12;63.19;100698.59;2718822;87;21133;-87
2022/07/03 07:18:36;;;;;;;3.75;3.37;;;;;;;25.30;63.18;100692.49;2808954;83;21015;-88
2022/07/03 07:22:37;;;;;;;4.17;2.77;;;;;;;25.61;62.57;100689.56;2815134;83;21539;-88
2022/07/03 07:26:38;;;;;;;3.00;2.17;;;;;;;25.71;59.83;100677.39;2804177;84;21078;-88
2022/07/03 07:30:40;;;;;;;4.00;2.35;;;;;;;25.76;61.22;100674.33;2818334;84;21015;-88
2022/07/03 07:34:41;;;;;;;2.92;2.67;;;;;;;25.91;60.49;100675.90;2753195;85;21056;-87
2022/07/03 07:38:42;;;;;;;5.92;3.52;;;;;;;26.27;60.70;100670.90;2773915;83;20984;-87
2022/07/03 07:42:43;;;;;;;5.15;3.40;;;;;;;25.91;58.61;100682.20;2809297;84;21012;-87
2022/07/03 07:46:44;;;;;;;8.93;3.02;;;;;;;25.49;59.31;100672.25;2803059;84;20984;-88
2022/07/03 07:50:46;;;;;;;3.15;1.82;;;;;;;25.16;59.20;100675.88;2804408;84;21023;-87
2022/07/03 07:54:47;;;;;;;6.95;2.90;;;;;;;25.04;60.37;100670.26;2797396;84;20965;-87
2022/07/03 07:58:48;;;;;;;3.87;2.92;;;;;;;24.94;61.47;100676.95;2726378;84;21067;-87
2022/07/03 08:07:09;;;;;;;2.77;2.58;;;;;;;25.60;57.80;100663.92;2810251;83;21381;-88
2022/07/03 08:11:10;;;;;;;2.45;2.25;;;;;;;26.10;56.18;100656.41;2806686;84;20995;-87
2022/07/03 08:15:12;;;;;;;4.80;2.45;;;;;;;26.33;55.10;100659.09;2807980;84;21027;-87
2022/07/03 08:19:13;;;;;;;4.67;2.47;;;;;;;26.12;55.02;100654.29;2810243;84;21067;-88
2022/07/03 08:23:14;;;;;;;2.98;2.70;;;;;;;25.65;57.32;100660.87;2808893;84;21019;-88
2022/07/03 08:27:16;;;;;;;2.15;1.98;;;;;;;25.73;57.71;100655.66;2812776;83;20972;-88
2022/07/03 08:31:17;;;;;;;2.20;2.00;;;;;;;26.25;57.59;100647.94;2802029;83;21578;-87
2022/07/03 08:35:18;;;;;;;2.02;1.92;;;;;;;26.53;54.13;100637.13;2764643;84;21045;-86
2022/07/03 08:39:19;;;;;;;3.27;2.62;;;;;;;26.62;54.79;100641.22;2766206;86;21367;-87
2022/07/03 08:43:21;;;;;;;3.08;2.00;;;;;;;26.87;54.01;100643.10;2724861;86;21628;-87
2022/07/03 08:47:24;;;;;;;2.45;2.22;;;;;;;26.62;53.13;100642.59;2764184;84;21080;-87
2022/07/03 08:51:26;;;;;;;2.17;1.65;;;;;;;26.19;55.54;100645.56;2748080;85;21024;-87
2022/07/03 08:55:28;;;;;;;2.62;2.40;;;;;;;26.55;55.91;100632.28;2725411;85;21057;-87
2022/07/03 08:59:38;;;;;;;2.00;1.77;;;;;;;26.82;54.55;100634.73;2712509;86;21102;-87
2022/07/03 09:03:40;;;;;;;2.02;1.75;;;;;;;26.77;54.18;100638.13;2793572;84;22026;-87
2022/07/03 09:07:45;;;;;;;3.42;1.77;;;;;;;26.55;53.07;100633.64;2816225;83;21027;-88
2022/07/03 09:11:47;;;;;;;7.00;2.40;;;;;;;26.52;55.36;100629.97;2752680;84;21094;-87
2022/07/03 09:15:49;;;;;;;1.95;1.60;;;;;;;26.46;55.37;100626.27;2749158;85;21090;-88
2022/07/03 09:19:50;;;;;;;1.85;1.75;;;;;;;26.16;54.52;100630.16;2724785;87;21054;-88
2022/07/03 09:23:51;;;;;;;2.70;2.08;;;;;;;26.19;55.83;100618.84;2763066;84;22141;-88
2022/07/03 09:27:53;;;;;;;2.02;1.85;;;;;;;26.65;56.88;100603.94;2734263;85;21054;-87
2022/07/03 09:31:58;;;;;;;1.98;1.57;;;;;;;27.03;54.34;100601.27;2751689;85;21047;-87
2022/07/03 09:35:59;;;;;;;;;;;;;;;26.89;53.61;100607.41;2758928;84;21121;-88
2022/07/03 09:40:02;;;;;;;2.62;2.27;;;;;;;26.88;53.56;100603.84;2776936;84;20112;-87
2022/07/03 09:44:04;;;;;;;2.27;2.10;;;;;;;26.87;53.18;100608.98;2732653;85;21038;-87
2022/07/03 09:48:21;;;;;;;2.62;2.42;;;;;;;27.19;55.17;100600.66;2745234;86;21075;-87
2022/07/03 09:52:42;;;;;;;3.17;2.60;;;;;;;27.75;53.44;100599.20;2760202;84;21028;-87
2022/07/03 09:56:44;;;;;;;3.47;3.17;;;;;;;27.99;52.94;100595.67;2773360;84;21005;-87
2022/07/03 10:00:45;;;;;;;4.22;3.33;;;;;;;28.07;50.52;100587.96;2766344;84;21608;-88
2022/07/03 10:04:47;;;;;;;2.55;2.35;;;;;;;27.92;50.95;100582.13;2733896;85;21034;-88
2022/07/03 10:08:50;;;;;;;2.67;2.27;;;;;;;27.55;52.05;100569.97;2776565;84;21044;-86
2022/07/03 10:12:54;;;;;;;2.55;2.35;;;;;;;27.21;52.37;100570.38;2770711;84;21036;-88
2022/07/03 10:16:57;;;;;;;2.52;2.33;;;;;;;27.21;52.91;100566.27;2773579;84;21039;-87
2022/07/03 10:20:59;;;;;;;2.12;1.95;;;;;;;27.50;53.35;100572.81;2776854;85;21038;-88
2022/07/03 10:25:02;;;;;;;3.00;2.80;;;;;;;27.97;52.36;100569.95;2733202;85;21062;-87
2022/07/03 10:29:03;;;;;;;4.90;3.30;;;;;;;27.90;51.17;100578.25;2760931;85;21045;-87
2022/07/03 10:33:05;;;;;;;3.02;2.58;;;;;;;27.54;51.84;100579.23;2757915;83;21043;-87
2022/07/03 10:37:06;;;;;;;3.50;3.20;;;;;;;27.37;52.50;100565.64;2705874;86;21004;-87
2022/07/03 10:46:17;;;;;;;5.22;4.42;;;;;;;27.78;50.25;100553.64;2597554;89;21085;-88
2022/07/03 10:50:21;;;;;;;3.77;3.37;;;;;;;27.56;51.68;100553.33;2623837;89;21117;-87
2022/07/03 10:54:31;;;;;;;6.90;3.15;;;;;;;27.83;52.30;100545.27;2620835;87;21507;-88
2022/07/03 10:58:32;;;;;;;8.58;5.05;;;;;;;27.68;51.10;100539.70;2619431;88;21099;-88
2022/07/03 11:02:38;;;;;;;3.58;3.17;;;;;;;27.78;51.32;100537.23;2636343;89;21071;-87
2022/07/03 11:06:59;;;;;;;5.17;4.67;;;;;;;27.71;51.98;100540.62;2608947;87;21064;-87
2022/07/03 11:11:54;;;;;;;5.03;3.35;;;;;;;27.91;51.58;100534.82;2614200;89;21233;-88
2022/07/03 11:15:29;;;;;;;3.90;3.58;;;;;;;27.91;53.00;100529.91;2630285;89;21060;-87
2022/07/03 11:19:32;;;;;;;8.08;7.47;;;;;;;27.60;51.42;100521.73;2646930;86;21067;-87
2022/07/03 11:23:39;;;;;;;3.40;2.92;;;;;;;27.42;50.30;100507.59;2770628;84;21007;-88
2022/07/03 11:27:40;;;;;;;3.35;3.05;;;;;;;27.16;50.48;100508.81;2702343;87;21010;-87
2022/07/03 11:31:41;;;;;;;3.27;2.58;;;;;;;27.45;50.26;100504.95;2739972;84;21099;-87
2022/07/03 11:35:49;;;;;;;4.40;4.00;;;;;;;27.45;50.43;100496.20;2771116;84;21025;-87
2022/07/03 11:39:54;;;;;;;3.95;3.65;;;;;;;27.77;50.69;100483.66;2725800;86;21014;-88
2022/07/03 11:44:03;;;;;;;5.37;3.15;;;;;;;27.95;51.38;100458.66;2709680;85;21001;-87
2022/07/03 11:48:17;;;;;;;6.53;3.95;;;;;;;28.18;53.88;100491.19;2768054;85;21075;-87
2022/07/03 11:52:38;;;;;;;3.42;2.90;;;;;;;28.40;52.61;100489.20;2725459;86;20975;-88
2022/07/03 11:56:38;;;;;;;4.12;2.62;;;;;;;28.51;50.68;100482.34;2764554;85;21116;-87
2022/07/03 12:00:40;;;;;;;3.37;2.90;;;;;;;28.47;48.92;100483.05;2730067;84;21095;-87
2022/07/03 12:04:41;;;;;;;3.80;3.50;;;;;;;28.50;49.18;100474.39;2715444;85;21509;-87
2022/07/03 12:08:46;;;;;;;3.20;3.00;;;;;;;28.49;49.23;100449.44;2765773;85;21039;-87
2022/07/03 12:12:45;;;;;;;3.80;3.05;;;;;;;28.68;49.90;100464.32;2725397;85;21046;-87
2022/07/03 12:16:47;;;;;;;8.43;3.60;;;;;;;28.52;48.92;100439.41;2769067;85;21011;-88
2022/07/03 12:20:48;;;;;;;3.65;3.30;;;;;;;28.55;48.94;100456.70;2747666;84;21066;-88
2022/07/03 12:25:01;;;;;;;4.50;3.33;;;;;;;28.56;48.61;100460.25;2725889;86;20999;-88
2022/07/03 12:29:09;;;;;;;2.17;2.08;;;;;;;28.83;46.81;100457.82;2719334;86;21061;-88
2022/07/03 12:33:11;;;;;;;4.50;4.10;;;;;;;28.83;46.81;100457.82;2732949;86;21031;-87
2022/07/03 12:37:12;;;;;;;3.92;3.50;;;;;;;28.79;47.81;100429.25;2814431;84;21045;-88
2022/07/03 12:41:15;;;;;;;6.85;3.62;;;;;;;28.69;48.58;100434.52;2813913;83;21126;-87
2022/07/03 12:45:23;;;;;;;3.67;3.37;;;;;;;28.93;51.00;100451.72;2815406;83;21055;-88
2022/07/03 12:49:24;;;;;;;3.92;3.62;;;;;;;29.10;49.45;100442.72;2815090;83;21027;-88
2022/07/03 12:53:29;;;;;;;3.08;2.72;;;;;;;29.15;49.52;100440.91;2811095;83;21055;-87
2022/07/03 13:02:06;;;;;;;3.58;2.77;;;;;;;29.43;50.39;100415.92;2814912;84;21633;-87
2022/07/03 13:06:14;;;;;;;3.50;2.75;;;;;;;29.43;47.10;100421.41;2816693;83;21020;-88
2022/07/03 13:10:19;;;;;;;2.52;2.35;;;;;;;29.63;49.58;100414.59;2815294;83;21078;-87
2022/07/03 13:14:21;;;;;;;7.05;3.33;;;;;;;29.86;46.51;100416.84;2816016;83;21034;-87
2022/07/03 13:18:22;;;;;;;2.83;2.55;;;;;;;29.70;46.21;100409.78;2815958;84;20988;-87
2022/07/03 13:22:23;;;;;;;4.05;3.02;;;;;;;29.52;47.04;100402.64;2818354;83;21030;-88
2022/07/03 13:26:24;;;;;;;4.15;2.33;;;;;;;29.60;47.06;100390.43;2799347;84;21026;-86
2022/07/03 13:30:25;;;;;;;3.70;3.40;;;;;;;29.85;46.93;100389.14;2811984;83;21050;-88
2022/07/03 13:34:27;;;;;;;2.83;2.62;;;;;;;29.97;48.22;100382.16;2812183;83;21023;-87
2022/07/03 13:38:28;;;;;;;5.03;3.17;;;;;;;29.90;46.70;100378.27;2809577;84;21042;-88
2022/07/03 13:42:30;;;;;;;3.40;2.65;;;;;;;29.88;47.37;100370.84;2810859;84;21012;-88
2022/07/03 13:46:31;;;;;;;5.08;2.95;;;;;;;29.89;48.53;100361.53;2810851;84;21016;-88
2022/07/03 13:50:32;;;;;;;3.67;3.33;;;;;;;29.76;47.45;100369.02;2806995;83;21134;-87
2022/07/03 13:54:34;;;;;;;3.15;2.45;;;;;;;29.81;48.34;100364.16;2811099;84;21051;-87
2022/07/03 13:58:35;;;;;;;2.67;2.47;;;;;;;29.84;48.57;100366.92;2807860;83;21051;-86
2022/07/03 14:02:38;;;;;;;4.10;3.30;;;;;;;29.88;49.93;100365.36;2805529;83;21015;-87
2022/07/03 14:06:40;;;;;;;3.37;2.98;;;;;;;30.05;47.92;100363.39;2811030;84;21052;-87
2022/07/03 14:10:41;;;;;;;4.50;3.42;;;;;;;30.21;46.17;100369.08;2793310;84;21035;-87
2022/07/03 14:14:42;;;;;;;2.62;2.27;;;;;;;30.30;45.87;100360.70;2811016;84;20988;-88
2022/07/03 14:18:44;;;;;;;3.65;2.05;;;;;;;30.48;48.83;100354.59;2788866;83;21309;-87
2022/07/03 14:22:45;;;;;;;3.50;2.65;;;;;;;30.69;48.77;100353.47;2803344;84;21039;-88
2022/07/03 14:35:26;;;;;;;2.98;2.60;;;;;;;30.96;47.38;100343.00;2809624;84;21034;-88
2022/07/03 14:39:27;;;;;;;2.37;1.95;;;;;;;31.03;47.01;100346.34;2811598;84;21019;-88
2022/07/03 14:43:28;;;;;;;20.88;5.08;;;;;;;31.00;47.78;100335.35;2798440;84;21000;-87
2022/07/03 14:47:30;;;;;;;3.62;2.80;;;;;;;30.89;46.84;100335.81;2809885;84;21023;-88
2022/07/03 14:51:31;;;;;;;7.42;3.05;;;;;;;30.98;47.73;100332.58;2809221;83;21035;-88
2022/07/03 14:55:40;;;;;;;2.52;2.33;;;;;;;30.97;47.70;100335.03;2810568;84;21012;-88
2022/07/03 15:00:05;;;;;;;2.77;2.58;;;;;;;30.96;48.45;100329.27;2809310;84;21043;-87
2022/07/03 15:04:17;;;;;;;5.45;2.47;;;;;;;30.88;47.96;100325.92;2809094;84;21056;-87
2022/07/03 15:08:37;;;;;;;3.37;2.45;;;;;;;30.96;45.60;100322.40;2807414;84;21015;-88
2022/07/03 15:12:47;;;;;;;2.75;2.55;;;;;;;31.06;44.98;100318.37;2808395;84;21048;-87
2022/07/03 15:16:51;;;;;;;3.12;2.85;;;;;;;31.15;44.46;100313.20;2809997;84;21134;-86
2022/07/03 15:20:52;;;;;;;4.17;2.83;;;;;;;31.09;44.21;100309.61;2807588;84;21048;-87
2022/07/03 15:24:53;;;;;;;3.20;2.90;;;;;;;30.96;44.09;100308.67;2752901;84;21043;-87
2022/07/03 15:28:58;;;;;;;6.40;2.40;;;;;;;30.98;44.88;100300.46;2813428;83;21016;-88
2022/07/03 15:33:00;;;;;;;9.78;3.35;;;;;;;31.04;45.29;100295.81;2818676;83;20984;-88
2022/07/03 15:37:42;;;;;;;2.52;2.33;;;;;;;30.75;45.63;100288.72;2814818;83;21496;-87
2022/07/03 15:42:09;;;;;;;4.22;2.55;;;;;;;30.64;46.24;100292.48;2817086;83;21008;-88
2022/07/03 15:46:34;;;;;;;3.12;2.83;;;;;;;30.68;45.39;100290.05;2816912;83;21035;-87
2022/07/03 15:50:59;;;;;;;4.12;3.05;;;;;;;30.71;46.02;100290.89;2813807;83;20992;-88
2022/07/03 15:55:08;;;;;;;;;;;;;;;30.56;45.34;100288.25;2819928;83;21032;-88
2022/07/03 15:59:16;;;;;;;3.55;2.55;;;;;;;30.37;45.92;100281.48;2815633;83;20122;-87
2022/07/03 16:03:32;;;;;;;2.72;2.52;;;;;;;30.22;46.59;100278.84;2811973;83;21031;-87
2022/07/03 16:07:38;;;;;;;4.90;3.30;;;;;;;30.12;45.84;100276.01;2817500;83;21025;-88
2022/07/03 16:11:39;;;;;;;2.67;2.47;;;;;;;30.09;46.05;100268.30;2817670;83;21012;-88
2022/07/03 16:15:42;;;;;;;2.70;2.37;;;;;;;30.10;47.17;100272.14;2808819;84;20964;-88
2022/07/03 16:19:46;;;;;;;4.05;2.52;;;;;;;30.16;47.09;100268.36;2815083;83;21285;-87
2022/07/03 16:23:50;;;;;;;3.33;3.02;;;;;;;30.19;46.82;100271.14;2816735;83;21031;-87
2022/07/03 16:27:51;;;;;;;3.45;3.17;;;;;;;30.10;47.07;100269.95;2814840;83;21090;-88
2022/07/03 16:31:56;;;;;;;3.05;2.85;;;;;;;29.93;46.26;100269.45;2814117;83;21090;-88
2022/07/03 16:36:05;;;;;;;3.47;2.72;;;;;;;29.71;46.95;100269.45;2815350;83;21035;-87
2022/07/03 16:40:07;;;;;;;6.20;3.52;;;;;;;29.55;47.27;100268.42;2816851;83;21016;-88
2022/07/03 16:44:09;;;;;;;3.45;2.77;;;;;;;29.40;47.98;100264.35;2752489;83;21621;-87
2022/07/03 16:48:15;;;;;;;3.45;2.75;;;;;;;29.30;48.01;100265.59;2814391;83;21012;-87
2022/07/03 16:52:21;;;;;;;3.58;3.10;;;;;;;29.21;47.89;100266.00;2817449;83;21094;-87
2022/07/03 16:56:22;;;;;;;2.98;2.70;;;;;;;29.09;48.59;100262.55;2815312;83;21474;-87
2022/07/03 17:00:28;;;;;;;5.08;3.08;;;;;;;29.01;48.97;100266.53;2814574;83;21023;-88
2022/07/03 17:04:30;;;;;;;2.80;2.60;;;;;;;28.93;49.06;100265.05;2817915;83;21027;-88
2022/07/03 17:08:33;;;;;;;4.05;3.08;;;;;;;28.90;49.05;100265.55;2813016;83;21046;-87
2022/07/03 17:12:34;;;;;;;4.10;3.05;;;;;;;28.90;49.23;100263.33;2816516;83;21032;-88
2022/07/03 17:16:43;;;;;;;5.95;2.60;;;;;;;28.88;49.31;100262.20;2817429;83;21046;-87
2022/07/03 17:20:45;;;;;;;4.15;2.98;;;;;;;28.83;49.55;100259.94;2811425;83;21028;-88
2022/07/03 17:24:51;;;;;;;4.78;3.35;;;;;;;28.72;49.05;100256.98;2816950;84;21047;-87
2022/07/03 17:29:04;;;;;;;3.90;3.58;;;;;;;28.69;49.51;100262.12;2814359;83;21042;-87
2022/07/03 17:33:09;;;;;;;3.40;2.55;;;;;;;28.62;49.38;100257.64;2813698;83;21004;-87
2022/07/03 17:37:11;;;;;;;8.73;3.58;;;;;;;28.54;49.65;100253.11;2809395;83;20975;-87
2022/07/03 17:41:17;;;;;;;3.80;2.92;;;;;;;28.45;50.25;100255.42;2789087;83;21098;-86
2022/07/03 17:45:19;;;;;;;4.12;3.83;;;;;;;28.38;50.69;100252.83;2808790;84;21011;-85
2022/07/03 17:49:20;;;;;;;3.35;3.05;;;;;;;28.32;51.02;100253.30;2778843;83;21047;-85
2022/07/03 17:53:23;;;;;;;4.15;3.77;;;;;;;28.25;50.91;100255.89;2735680;83;21106;-85
2022/07/03 17:57:34;;;;;;;3.60;3.30;;;;;;;28.00;51.71;100249.65;2796028;83;21039;-86
2022/07/03 18:01:36;;;;;;;3.33;2.87;;;;;;;27.87;51.90;100246.66;2799400;83;21098;-86
2022/07/03 18:05:44;;;;;;;4.92;3.70;;;;;;;27.87;51.90;100246.66;2792480;83;20980;-86
2022/07/03 18:09:45;;;;;;;3.58;3.27;;;;;;;27.75;52.54;100246.70;2802464;84;21003;-88
2022/07/03 18:14:07;;;;;;;3.27;3.08;;;;;;;27.63;53.16;100251.35;2788859;83;20980;-86
2022/07/03 18:18:19;;;;;;;2.72;2.52;;;;;;;27.50;53.55;100252.41;2743811;85;21046;-85
2022/07/03 18:22:21;;;;;;;3.08;2.87;;;;;;;27.36;53.57;100253.20;2757190;85;21072;-86
2022/07/03 18:26:45;;;;;;;3.45;3.17;;;;;;;27.11;54.08;100242.52;2670547;86;20979;-86
2022/07/03 18:30:47;;;;;;;3.73;3.43;;;;;;;27.11;54.08;100242.52;2752024;84;21072;-87
2022/07/03 18:34:50;;;;;;;3.27;3.05;;;;;;;26.96;54.79;100254.73;2706116;86;21107;-87
2022/07/03 18:38:51;;;;;;;3.65;3.02;;;;;;;26.80;55.40;100252.14;2804192;83;21003;-87
2022/07/03 18:42:53;;;;;;;4.80;3.25;;;;;;;26.67;55.70;100255.91;2757125;84;21021;-87
2022/07/03 18:46:54;;;;;;;3.72;3.12;;;;;;;26.52;56.28;100254.97;2685434;86;21021;-87
2022/07/03 18:51:13;;;;;;;5.05;3.60;;;;;;;26.38;56.77;100252.97;2717994;86;21073;-88
2022/07/03 18:55:23;;;;;;;4.42;3.70;;;;;;;26.24;57.08;100263.23;2725478;85;21090;-89
2022/07/03 18:59:39;;;;;;;3.42;3.15;;;;;;;26.07;57.32;100266.56;2744421;84;21024;-87
2022/07/03 19:04:04;;;;;;;3.77;3.47;;;;;;;25.98;57.77;100264.38;2733796;84;21034;-92
2022/07/03 19:08:09;;;;;;;4.47;4.07;;;;;;;25.87;58.03;100269.55;2594142;89;21174;-88
2022/07/03 19:12:15;;;;;;;5.42;4.80;;;;;;;25.73;58.50;100269.41;2611058;89;21595;-88
2022/07/03 19:16:18;;;;;;;5.37;4.90;;;;;;;25.62;58.73;100277.80;2675704;88;21083;-88
2022/07/03 19:20:20;;;;;;;4.10;3.35;;;;;;;25.50;58.87;100277.17;2701217;87;21050;-88